Wetterdaten: Woche 03.05.10 - 09.05.10 (KW18)
Datum Zeit Temperatur Luftfeuchte Luftdruck Niederschlag Wind Richtung Sonnenschein Solar Taupunkt Windchill Windben
03.05.2010 00:00 9.5 C 92 % 1010.0 hPa 0.0 l/m 1.2 km/h (1 Bft) S-SO 0.00 h 0 W/m 8.3 C 9.5 C 2.8 km/h (1 Bft)
03.05.2010 01:00 9.4 C 94 % 1009.8 hPa 0.0 l/m 0.9 km/h (0 Bft) S-SO 0.00 h 0 W/m 8.4 C 9.4 C 2.1 km/h (1 Bft)
03.05.2010 02:00 9.1 C 95 % 1009.8 hPa 0.6 l/m 0.1 km/h (0 Bft) S 0.00 h 0 W/m 8.3 C 9.1 C 0.7 km/h (0 Bft)
03.05.2010 03:00 8.8 C 94 % 1009.6 hPa 0.6 l/m 3.2 km/h (1 Bft) SO 0.00 h 0 W/m 7.9 C 8.6 C 5.6 km/h (1 Bft)
03.05.2010 04:00 8.3 C 94 % 1009.4 hPa 0.0 l/m 0.7 km/h (0 Bft) O-SO 0.00 h 0 W/m 7.5 C 8.3 C 1.5 km/h (1 Bft)
03.05.2010 05:00 7.8 C 96 % 1009.5 hPa 0.0 l/m 0.7 km/h (0 Bft) O-SO 0.00 h 0 W/m 7.2 C 7.8 C 1.8 km/h (1 Bft)
03.05.2010 06:00 7.5 C 96 % 1009.5 hPa 0.0 l/m 0.1 km/h (0 Bft) O-SO 0.07 h 27 W/m 6.9 C 7.5 C 0.5 km/h (0 Bft)
03.05.2010 07:00 8.2 C 96 % 1009.6 hPa 0.0 l/m 1.8 km/h (1 Bft) O-SO 0.00 h 42 W/m 7.7 C 8.2 C 2.9 km/h (1 Bft)
03.05.2010 08:00 9.1 C 95 % 1009.9 hPa 0.0 l/m 1.0 km/h (0 Bft) O-SO 0.00 h 123 W/m 8.2 C 9.1 C 2.3 km/h (1 Bft)
03.05.2010 09:00 10.1 C 91 % 1009.8 hPa 0.0 l/m 0.7 km/h (0 Bft) O-SO 0.33 h 277 W/m 8.7 C 10.1 C 2.1 km/h (1 Bft)
03.05.2010 10:00 11.2 C 88 % 1010.1 hPa 0.0 l/m 1.2 km/h (1 Bft) W 0.42 h 362 W/m 9.3 C 11.2 C 2.9 km/h (1 Bft)
03.05.2010 11:00 10.9 C 87 % 1010.6 hPa 0.0 l/m 4.5 km/h (1 Bft) W 0.00 h 201 W/m 8.9 C 10.9 C 7.9 km/h (2 Bft)
03.05.2010 12:00 11.7 C 83 % 1010.8 hPa 0.0 l/m 6.3 km/h (2 Bft) W 0.30 h 415 W/m 8.9 C 11.7 C 10.1 km/h (2 Bft)
03.05.2010 13:00 13.0 C 75 % 1010.1 hPa 0.0 l/m 4.2 km/h (1 Bft) W-SW 0.73 h 557 W/m 8.7 C 13.0 C 7.2 km/h (2 Bft)
03.05.2010 14:00 14.2 C 65 % 1010.3 hPa 0.0 l/m 4.4 km/h (1 Bft) W 0.82 h 600 W/m 7.8 C 14.2 C 7.5 km/h (2 Bft)
03.05.2010 15:00 15.1 C 60 % 1010.2 hPa 0.0 l/m 2.9 km/h (1 Bft) W 0.85 h 521 W/m 7.4 C 15.1 C 5.3 km/h (1 Bft)
03.05.2010 16:00 15.1 C 57 % 1010.0 hPa 0.0 l/m 7.0 km/h (2 Bft) W 0.52 h 376 W/m 6.7 C 15.1 C 11.5 km/h (2 Bft)
03.05.2010 17:00 14.3 C 60 % 1010.2 hPa 0.0 l/m 7.2 km/h (2 Bft) W 0.42 h 264 W/m 6.6 C 14.3 C 11.4 km/h (2 Bft)
03.05.2010 18:00 13.3 C 66 % 1010.5 hPa 0.0 l/m 4.5 km/h (1 Bft) W 0.00 h 74 W/m 7.1 C 13.3 C 7.7 km/h (2 Bft)
03.05.2010 19:00 12.6 C 71 % 1010.9 hPa 0.0 l/m 1.9 km/h (1 Bft) O 0.00 h 26 W/m 7.5 C 12.6 C 4.3 km/h (1 Bft)
03.05.2010 20:00 10.9 C 81 % 1011.7 hPa 0.0 l/m 2.4 km/h (1 Bft) N-NO 0.00 h 8 W/m 7.7 C 10.9 C 6.2 km/h (2 Bft)
03.05.2010 21:00 10.1 C 88 % 1012.2 hPa 0.0 l/m 0.4 km/h (0 Bft) O-NO 0.00 h 0 W/m 8.1 C 10.1 C 1.6 km/h (1 Bft)
03.05.2010 22:00 10.1 C 86 % 1012.5 hPa 0.2 l/m 1.6 km/h (1 Bft) O-SO 0.00 h 0 W/m 7.9 C 10.1 C 3.6 km/h (1 Bft)
03.05.2010 23:00 9.8 C 87 % 1012.6 hPa 0.2 l/m 0.2 km/h (0 Bft) NO 0.00 h 0 W/m 7.7 C 9.8 C 0.7 km/h (0 Bft)
04.05.2010 00:00 9.7 C 88 % 1012.7 hPa 0.0 l/m 0.2 km/h (0 Bft) O 0.00 h 0 W/m 7.8 C 9.7 C 1.2 km/h (1 Bft)
04.05.2010 01:00 9.5 C 89 % 1012.5 hPa 0.2 l/m 1.2 km/h (1 Bft) NO 0.00 h 0 W/m 7.8 C 9.5 C 3.4 km/h (1 Bft)
04.05.2010 02:00 9.3 C 89 % 1012.3 hPa 0.0 l/m 1.9 km/h (1 Bft) NO 0.00 h 0 W/m 7.6 C 9.3 C 4.8 km/h (1 Bft)
04.05.2010 03:00 9.2 C 88 % 1011.8 hPa 0.2 l/m 3.7 km/h (1 Bft) N-NO 0.00 h 0 W/m 7.4 C 9.0 C 8.3 km/h (2 Bft)
04.05.2010 04:00 9.0 C 89 % 1011.4 hPa 0.0 l/m 2.9 km/h (1 Bft) N-NO 0.00 h 0 W/m 7.3 C 8.9 C 6.5 km/h (2 Bft)
04.05.2010 05:00 9.0 C 90 % 1010.9 hPa 0.2 l/m 1.5 km/h (1 Bft) N 0.00 h 0 W/m 7.4 C 8.9 C 3.5 km/h (1 Bft)
04.05.2010 06:00 9.1 C 88 % 1011.1 hPa 0.0 l/m 1.1 km/h (1 Bft) O 0.00 h 9 W/m 7.3 C 9.1 C 3.1 km/h (1 Bft)
04.05.2010 07:00 9.0 C 90 % 1010.9 hPa 0.0 l/m 1.4 km/h (1 Bft) O 0.00 h 11 W/m 7.4 C 9.0 C 3.6 km/h (1 Bft)
04.05.2010 08:00 9.3 C 88 % 1010.9 hPa 0.0 l/m 3.8 km/h (1 Bft) N 0.00 h 21 W/m 7.3 C 8.9 C 8.2 km/h (2 Bft)
04.05.2010 09:00 9.4 C 86 % 1010.5 hPa 0.0 l/m 3.4 km/h (1 Bft) O 0.00 h 48 W/m 7.1 C 9.2 C 7.6 km/h (2 Bft)
04.05.2010 10:00 9.8 C 86 % 1010.4 hPa 0.0 l/m 2.1 km/h (1 Bft) O-SO 0.00 h 59 W/m 7.5 C 9.7 C 5.1 km/h (1 Bft)
04.05.2010 11:00 10.6 C 83 % 1010.1 hPa 0.0 l/m 2.6 km/h (1 Bft) N-NO 0.00 h 99 W/m 7.8 C 10.6 C 6.1 km/h (2 Bft)
04.05.2010 12:00 11.4 C 79 % 1009.7 hPa 0.0 l/m 5.9 km/h (2 Bft) N-NO 0.00 h 138 W/m 8.0 C 11.4 C 12.5 km/h (3 Bft)
04.05.2010 13:00 11.4 C 79 % 1009.4 hPa 0.0 l/m 8.6 km/h (2 Bft) N 0.00 h 110 W/m 7.8 C 11.4 C 16.7 km/h (3 Bft)
04.05.2010 14:00 11.3 C 79 % 1009.5 hPa 0.0 l/m 4.8 km/h (1 Bft) N-NO 0.00 h 81 W/m 7.9 C 11.3 C 10.0 km/h (2 Bft)
04.05.2010 15:00 10.9 C 86 % 1009.3 hPa 0.8 l/m 6.4 km/h (2 Bft) N-NO 0.00 h 122 W/m 8.6 C 10.9 C 12.4 km/h (3 Bft)
04.05.2010 16:00 10.7 C 89 % 1009.3 hPa 1.0 l/m 3.6 km/h (1 Bft) N-NO 0.00 h 95 W/m 8.9 C 10.7 C 7.6 km/h (2 Bft)
04.05.2010 17:00 11.1 C 90 % 1009.1 hPa 0.0 l/m 2.1 km/h (1 Bft) N-NO 0.00 h 132 W/m 9.5 C 11.1 C 5.3 km/h (1 Bft)
04.05.2010 18:00 11.8 C 87 % 1008.8 hPa 0.0 l/m 3.0 km/h (1 Bft) N 0.00 h 101 W/m 9.6 C 11.8 C 7.0 km/h (2 Bft)
04.05.2010 19:00 11.8 C 84 % 1008.5 hPa 0.0 l/m 5.8 km/h (2 Bft) N-NO 0.00 h 25 W/m 9.1 C 11.8 C 12.1 km/h (2 Bft)
04.05.2010 20:00 11.8 C 81 % 1008.7 hPa 0.0 l/m 5.1 km/h (1 Bft) N-NO 0.00 h 7 W/m 8.7 C 11.8 C 10.6 km/h (2 Bft)
04.05.2010 21:00 11.7 C 80 % 1008.7 hPa 0.0 l/m 6.3 km/h (2 Bft) N-NO 0.00 h 0 W/m 8.5 C 11.7 C 13.0 km/h (3 Bft)
04.05.2010 22:00 11.6 C 80 % 1009.2 hPa 0.0 l/m 6.4 km/h (2 Bft) N-NO 0.00 h 0 W/m 8.3 C 11.6 C 12.3 km/h (3 Bft)
04.05.2010 23:00 11.6 C 80 % 1009.4 hPa 0.0 l/m 4.9 km/h (1 Bft) O-SO 0.00 h 0 W/m 8.2 C 11.6 C 10.6 km/h (2 Bft)
05.05.2010 00:00 11.4 C 80 % 1009.6 hPa 0.0 l/m 4.2 km/h (1 Bft) O-SO 0.00 h 0 W/m 8.1 C 11.4 C 8.9 km/h (2 Bft)
05.05.2010 01:00 11.3 C 81 % 1009.4 hPa 0.0 l/m 4.3 km/h (1 Bft) N-NO 0.00 h 0 W/m 8.1 C 11.3 C 9.0 km/h (2 Bft)
05.05.2010 02:00 10.9 C 82 % 1008.7 hPa 0.0 l/m 3.9 km/h (1 Bft) N-NW 0.00 h 0 W/m 7.8 C 10.9 C 8.0 km/h (2 Bft)
05.05.2010 03:00 10.1 C 83 % 1008.8 hPa 0.0 l/m 5.3 km/h (1 Bft) N 0.00 h 0 W/m 7.3 C 9.9 C 10.2 km/h (2 Bft)
05.05.2010 04:00 9.8 C 84 % 1008.7 hPa 0.0 l/m 4.1 km/h (1 Bft) N 0.00 h 0 W/m 7.2 C 9.5 C 7.7 km/h (2 Bft)
05.05.2010 05:00 9.8 C 82 % 1008.2 hPa 0.0 l/m 3.4 km/h (1 Bft) N-NO 0.00 h 0 W/m 6.8 C 9.7 C 7.3 km/h (2 Bft)
05.05.2010 06:00 9.7 C 81 % 1008.1 hPa 0.0 l/m 3.0 km/h (1 Bft) N-NO 0.00 h 5 W/m 6.6 C 9.5 C 6.8 km/h (2 Bft)
05.05.2010 07:00 8.7 C 86 % 1007.1 hPa 0.0 l/m 5.7 km/h (1 Bft) N 0.00 h 37 W/m 6.5 C 8.0 C 11.3 km/h (2 Bft)
05.05.2010 08:00 8.7 C 90 % 1007.2 hPa 0.4 l/m 1.7 km/h (1 Bft) N-NW 0.00 h 72 W/m 7.1 C 8.7 C 4.4 km/h (1 Bft)
05.05.2010 09:00 8.7 C 89 % 1006.9 hPa 0.0 l/m 4.0 km/h (1 Bft) N-NW 0.00 h 65 W/m 6.9 C 8.3 C 8.2 km/h (2 Bft)
05.05.2010 10:00 8.5 C 88 % 1006.4 hPa 0.0 l/m 4.2 km/h (1 Bft) N 0.00 h 65 W/m 6.5 C 8.1 C 8.4 km/h (2 Bft)
05.05.2010 11:00 8.6 C 86 % 1006.2 hPa 0.0 l/m 4.4 km/h (1 Bft) N-NW 0.00 h 85 W/m 6.4 C 8.1 C 9.0 km/h (2 Bft)
05.05.2010 12:00 8.5 C 85 % 1005.8 hPa 0.0 l/m 5.1 km/h (1 Bft) N 0.00 h 91 W/m 6.1 C 7.9 C 10.6 km/h (2 Bft)
05.05.2010 13:00 8.4 C 85 % 1004.9 hPa 0.0 l/m 3.7 km/h (1 Bft) N 0.00 h 101 W/m 6.1 C 8.0 C 7.7 km/h (2 Bft)
05.05.2010 14:00 8.7 C 85 % 1004.4 hPa 0.0 l/m 4.2 km/h (1 Bft) N 0.00 h 84 W/m 6.3 C 8.4 C 8.2 km/h (2 Bft)
05.05.2010 15:00 8.5 C 88 % 1003.9 hPa 0.0 l/m 3.9 km/h (1 Bft) NO 0.00 h 72 W/m 6.6 C 8.1 C 7.9 km/h (2 Bft)
05.05.2010 16:00 8.6 C 88 % 1003.1 hPa 0.0 l/m 4.1 km/h (1 Bft) N 0.00 h 52 W/m 6.6 C 8.2 C 8.7 km/h (2 Bft)
05.05.2010 17:00 8.8 C 87 % 1002.5 hPa 0.0 l/m 2.6 km/h (1 Bft) N 0.00 h 29 W/m 6.7 C 8.6 C 5.9 km/h (2 Bft)
05.05.2010 18:00 8.8 C 88 % 1002.7 hPa 0.0 l/m 1.3 km/h (1 Bft) SW 0.00 h 15 W/m 7.0 C 8.7 C 3.0 km/h (1 Bft)
05.05.2010 19:00 8.3 C 94 % 1003.3 hPa 1.2 l/m 1.6 km/h (1 Bft) W 0.00 h 8 W/m 7.4 C 8.2 C 3.5 km/h (1 Bft)
05.05.2010 20:00 8.2 C 96 % 1002.9 hPa 0.0 l/m 2.9 km/h (1 Bft) N-NW 0.00 h 0 W/m 7.6 C 8.1 C 6.0 km/h (2 Bft)
05.05.2010 21:00 8.4 C 96 % 1002.5 hPa 0.0 l/m 0.3 km/h (0 Bft) NO 0.00 h 0 W/m 7.8 C 8.4 C 1.1 km/h (1 Bft)
05.05.2010 22:00 8.7 C 95 % 1002.3 hPa 0.2 l/m 0.9 km/h (0 Bft) N 0.00 h 0 W/m 7.9 C 8.7 C 2.6 km/h (1 Bft)
05.05.2010 23:00 8.7 C 95 % 1002.0 hPa 0.0 l/m 1.9 km/h (1 Bft) N-NO 0.00 h 0 W/m 7.9 C 8.7 C 4.3 km/h (1 Bft)
06.05.2010 00:00 8.7 C 94 % 1001.5 hPa 0.2 l/m 1.2 km/h (1 Bft) NO 0.00 h 0 W/m 7.8 C 8.7 C 3.3 km/h (1 Bft)
06.05.2010 01:00 8.4 C 95 % 1001.5 hPa 0.0 l/m 1.2 km/h (1 Bft) N 0.00 h 0 W/m 7.7 C 8.4 C 2.6 km/h (1 Bft)
06.05.2010 02:00 8.1 C 96 % 1001.5 hPa 0.8 l/m 0.9 km/h (0 Bft) N 0.00 h 0 W/m 7.5 C 8.1 C 2.4 km/h (1 Bft)
06.05.2010 03:00 7.9 C 96 % 1001.3 hPa 0.2 l/m 1.6 km/h (1 Bft) N 0.00 h 0 W/m 7.4 C 7.9 C 3.4 km/h (1 Bft)
06.05.2010 04:00 7.9 C 96 % 1001.1 hPa 0.0 l/m 0.1 km/h (0 Bft) N-NW 0.00 h 0 W/m 7.4 C 7.9 C 0.6 km/h (0 Bft)
06.05.2010 05:00 7.8 C 96 % 1000.9 hPa 0.0 l/m 1.5 km/h (1 Bft) W 0.00 h 0 W/m 7.2 C 7.7 C 3.2 km/h (1 Bft)
06.05.2010 06:00 7.3 C 96 % 1001.0 hPa 0.0 l/m 2.6 km/h (1 Bft) W-NW 0.00 h 12 W/m 6.7 C 7.1 C 5.0 km/h (1 Bft)
06.05.2010 07:00 7.1 C 95 % 1001.5 hPa 0.2 l/m 2.9 km/h (1 Bft) W-NW 0.00 h 19 W/m 6.3 C 6.8 C 5.3 km/h (1 Bft)
06.05.2010 08:00 7.1 C 95 % 1001.6 hPa 0.0 l/m 4.2 km/h (1 Bft) W-NW 0.00 h 25 W/m 6.3 C 6.6 C 7.2 km/h (2 Bft)
06.05.2010 09:00 7.3 C 95 % 1001.6 hPa 0.0 l/m 1.9 km/h (1 Bft) W 0.00 h 54 W/m 6.6 C 7.2 C 4.1 km/h (1 Bft)
06.05.2010 10:00 7.9 C 93 % 1001.7 hPa 0.0 l/m 4.6 km/h (1 Bft) W-SW 0.00 h 131 W/m 6.9 C 7.4 C 7.8 km/h (2 Bft)
06.05.2010 11:00 8.6 C 90 % 1001.6 hPa 0.0 l/m 6.9 km/h (2 Bft) W 0.00 h 170 W/m 7.1 C 7.7 C 11.1 km/h (2 Bft)
06.05.2010 12:00 8.9 C 88 % 1001.6 hPa 0.0 l/m 10.4 km/h (2 Bft) W 0.00 h 223 W/m 7.0 C 7.3 C 15.9 km/h (3 Bft)
06.05.2010 13:00 9.1 C 86 % 1001.9 hPa 0.0 l/m 10.5 km/h (2 Bft) W 0.00 h 128 W/m 6.9 C 7.5 C 16.6 km/h (3 Bft)
06.05.2010 14:00 9.0 C 85 % 1002.1 hPa 0.0 l/m 11.7 km/h (2 Bft) W 0.00 h 202 W/m 6.6 C 7.2 C 18.0 km/h (3 Bft)
06.05.2010 15:00 9.0 C 83 % 1002.3 hPa 0.0 l/m 12.1 km/h (2 Bft) W 0.00 h 153 W/m 6.3 C 7.2 C 18.9 km/h (3 Bft)
06.05.2010 16:00 8.7 C 83 % 1002.6 hPa 0.0 l/m 10.6 km/h (2 Bft) W 0.00 h 83 W/m 6.0 C 7.1 C 17.1 km/h (3 Bft)
06.05.2010 17:00 8.4 C 82 % 1003.1 hPa 0.0 l/m 15.1 km/h (3 Bft) W 0.00 h 52 W/m 5.6 C 6.0 C 22.8 km/h (4 Bft)
06.05.2010 18:00 8.2 C 84 % 1003.4 hPa 0.0 l/m 13.5 km/h (3 Bft) W 0.00 h 33 W/m 5.5 C 5.9 C 20.5 km/h (4 Bft)
06.05.2010 19:00 7.6 C 88 % 1004.1 hPa 0.0 l/m 7.3 km/h (2 Bft) W 0.00 h 16 W/m 5.8 C 6.5 C 11.9 km/h (2 Bft)
06.05.2010 20:00 6.9 C 90 % 1004.5 hPa 0.6 l/m 9.7 km/h (2 Bft) W 0.00 h 7 W/m 5.4 C 5.1 C 15.3 km/h (3 Bft)
06.05.2010 21:00 6.3 C 91 % 1005.0 hPa 0.2 l/m 11.0 km/h (2 Bft) W 0.00 h 0 W/m 5.0 C 4.1 C 17.3 km/h (3 Bft)
06.05.2010 22:00 6.2 C 91 % 1005.4 hPa 0.0 l/m 10.8 km/h (2 Bft) W 0.00 h 0 W/m 4.8 C 4.0 C 17.3 km/h (3 Bft)
06.05.2010 23:00 6.1 C 91 % 1005.5 hPa 0.0 l/m 8.1 km/h (2 Bft) W 0.00 h 0 W/m 4.7 C 4.5 C 13.1 km/h (3 Bft)
07.05.2010 00:00 5.9 C 92 % 1005.8 hPa 0.2 l/m 7.1 km/h (2 Bft) W 0.00 h 0 W/m 4.6 C 4.5 C 11.5 km/h (2 Bft)
07.05.2010 01:00 5.8 C 92 % 1005.7 hPa 0.2 l/m 6.4 km/h (2 Bft) W 0.00 h 0 W/m 4.6 C 4.6 C 10.6 km/h (2 Bft)
07.05.2010 02:00 5.8 C 90 % 1005.4 hPa 0.0 l/m 5.2 km/h (1 Bft) W 0.00 h 0 W/m 4.4 C 5.0 C 8.8 km/h (2 Bft)
07.05.2010 03:00 5.8 C 91 % 1005.5 hPa 0.0 l/m 3.4 km/h (1 Bft) W 0.00 h 0 W/m 4.5 C 5.5 C 6.3 km/h (2 Bft)
07.05.2010 04:00 5.8 C 93 % 1005.5 hPa 0.0 l/m 3.2 km/h (1 Bft) W-SW 0.00 h 0 W/m 4.7 C 5.6 C 6.3 km/h (2 Bft)
07.05.2010 05:00 6.0 C 92 % 1005.7 hPa 0.0 l/m 4.2 km/h (1 Bft) W-SW 0.00 h 0 W/m 4.9 C 5.5 C 7.4 km/h (2 Bft)
07.05.2010 06:00 6.2 C 92 % 1006.1 hPa 0.2 l/m 4.7 km/h (1 Bft) W-SW 0.00 h 9 W/m 5.1 C 5.7 C 8.0 km/h (2 Bft)
07.05.2010 07:00 6.5 C 92 % 1006.4 hPa 0.0 l/m 3.1 km/h (1 Bft) S-SW 0.00 h 22 W/m 5.3 C 6.3 C 6.0 km/h (2 Bft)
07.05.2010 08:00 6.8 C 92 % 1006.8 hPa 0.0 l/m 2.8 km/h (1 Bft) W-SW 0.00 h 47 W/m 5.6 C 6.6 C 5.1 km/h (1 Bft)
07.05.2010 09:00 7.9 C 88 % 1007.1 hPa 0.0 l/m 2.7 km/h (1 Bft) W 0.00 h 142 W/m 6.1 C 7.7 C 5.6 km/h (1 Bft)
07.05.2010 10:00 8.7 C 83 % 1007.3 hPa 0.0 l/m 8.5 km/h (2 Bft) W 0.00 h 245 W/m 6.1 C 7.5 C 13.9 km/h (3 Bft)
07.05.2010 11:00 9.4 C 79 % 1007.5 hPa 0.0 l/m 10.5 km/h (2 Bft) W 0.20 h 393 W/m 5.9 C 7.8 C 17.0 km/h (3 Bft)
07.05.2010 12:00 10.8 C 74 % 1007.3 hPa 0.0 l/m 6.6 km/h (2 Bft) W 0.57 h 548 W/m 6.3 C 10.7 C 10.4 km/h (2 Bft)
07.05.2010 13:00 11.6 C 71 % 1007.1 hPa 0.0 l/m 4.7 km/h (1 Bft) W 0.13 h 407 W/m 6.4 C 11.6 C 7.9 km/h (2 Bft)
07.05.2010 14:00 12.5 C 66 % 1006.8 hPa 0.0 l/m 2.6 km/h (1 Bft) N-NW 0.45 h 443 W/m 6.3 C 12.5 C 4.8 km/h (1 Bft)
07.05.2010 15:00 13.2 C 63 % 1006.6 hPa 0.0 l/m 2.9 km/h (1 Bft) W 0.32 h 440 W/m 6.3 C 13.2 C 5.2 km/h (1 Bft)
07.05.2010 16:00 13.2 C 63 % 1006.4 hPa 0.0 l/m 4.0 km/h (1 Bft) W 0.02 h 290 W/m 6.3 C 13.2 C 6.4 km/h (2 Bft)
07.05.2010 17:00 13.6 C 62 % 1006.3 hPa 0.0 l/m 4.9 km/h (1 Bft) W 0.35 h 290 W/m 6.5 C 13.6 C 8.1 km/h (2 Bft)
07.05.2010 18:00 12.3 C 63 % 1006.5 hPa 0.0 l/m 4.5 km/h (1 Bft) W-NW 0.00 h 121 W/m 5.4 C 12.3 C 7.5 km/h (2 Bft)
07.05.2010 19:00 11.2 C 71 % 1006.8 hPa 0.0 l/m 0.8 km/h (0 Bft) W-NW 0.00 h 27 W/m 6.1 C 11.2 C 2.3 km/h (1 Bft)
07.05.2010 20:00 10.6 C 74 % 1007.1 hPa 0.0 l/m 0.2 km/h (0 Bft) NW 0.00 h 13 W/m 6.1 C 10.6 C 1.4 km/h (1 Bft)
07.05.2010 21:00 10.2 C 76 % 1007.5 hPa 0.0 l/m 0.4 km/h (0 Bft) NW 0.00 h 0 W/m 6.2 C 10.2 C 1.0 km/h (0 Bft)
07.05.2010 22:00 9.4 C 82 % 1007.7 hPa 0.0 l/m 1.2 km/h (1 Bft) O-SO 0.00 h 0 W/m 6.4 C 9.4 C 2.3 km/h (1 Bft)
07.05.2010 23:00 8.7 C 86 % 1007.8 hPa 0.0 l/m 1.2 km/h (1 Bft) O 0.00 h 0 W/m 6.5 C 8.7 C 2.2 km/h (1 Bft)
08.05.2010 00:00 7.6 C 90 % 1007.9 hPa 0.0 l/m 1.5 km/h (1 Bft) O-SO 0.00 h 0 W/m 6.1 C 7.4 C 2.3 km/h (1 Bft)
08.05.2010 01:00 7.0 C 91 % 1007.8 hPa 0.0 l/m 0.6 km/h (0 Bft) O-SO 0.00 h 0 W/m 5.7 C 7.0 C 1.4 km/h (1 Bft)
08.05.2010 02:00 6.8 C 92 % 1007.7 hPa 0.0 l/m 1.4 km/h (1 Bft) O-SO 0.00 h 0 W/m 5.6 C 6.8 C 2.7 km/h (1 Bft)
08.05.2010 03:00 6.7 C 94 % 1007.7 hPa 0.0 l/m 0.0 km/h (0 Bft) O-SO 0.00 h 0 W/m 5.8 C 6.7 C 0.2 km/h (0 Bft)
08.05.2010 04:00 6.8 C 95 % 1007.7 hPa 0.0 l/m 0.2 km/h (0 Bft) O-SO 0.00 h 0 W/m 6.0 C 6.8 C 0.6 km/h (0 Bft)
08.05.2010 05:00 6.6 C 95 % 1007.7 hPa 0.0 l/m 0.0 km/h (0 Bft) N 0.00 h 0 W/m 5.9 C 6.6 C 0.0 km/h (0 Bft)
08.05.2010 06:00 6.7 C 95 % 1008.0 hPa 0.0 l/m 0.0 km/h (0 Bft) N 0.00 h 19 W/m 6.0 C 6.7 C 0.0 km/h (0 Bft)
08.05.2010 07:00 7.1 C 95 % 1008.5 hPa 0.0 l/m 0.3 km/h (0 Bft) O-SO 0.00 h 65 W/m 6.3 C 7.1 C 0.9 km/h (0 Bft)
08.05.2010 08:00 8.4 C 90 % 1008.5 hPa 0.0 l/m 0.7 km/h (0 Bft) W-NW 0.28 h 226 W/m 6.9 C 8.4 C 2.0 km/h (1 Bft)
08.05.2010 09:00 11.3 C 80 % 1008.5 hPa 0.0 l/m 1.6 km/h (1 Bft) O-SO 1.00 h 516 W/m 7.9 C 11.3 C 3.6 km/h (1 Bft)
08.05.2010 10:00 13.1 C 72 % 1008.3 hPa 0.0 l/m 1.9 km/h (1 Bft) W-NW 1.00 h 642 W/m 8.2 C 13.1 C 3.9 km/h (1 Bft)
08.05.2010 11:00 15.1 C 64 % 1007.9 hPa 0.0 l/m 1.8 km/h (1 Bft) SO 0.92 h 757 W/m 8.4 C 15.1 C 4.0 km/h (1 Bft)
08.05.2010 12:00 15.9 C 59 % 1007.9 hPa 0.0 l/m 2.7 km/h (1 Bft) W-NW 0.83 h 601 W/m 7.8 C 15.9 C 5.3 km/h (1 Bft)
08.05.2010 13:00 16.9 C 56 % 1007.9 hPa 0.0 l/m 3.8 km/h (1 Bft) W 1.00 h 657 W/m 8.0 C 16.9 C 6.2 km/h (2 Bft)
08.05.2010 14:00 17.7 C 48 % 1007.8 hPa 0.0 l/m 5.8 km/h (2 Bft) N-NW 0.53 h 475 W/m 6.5 C 17.7 C 10.1 km/h (2 Bft)
08.05.2010 15:00 18.9 C 40 % 1007.5 hPa 0.0 l/m 6.4 km/h (2 Bft) N-NW 0.85 h 723 W/m 4.9 C 18.9 C 10.2 km/h (2 Bft)
08.05.2010 16:00 19.3 C 37 % 1007.3 hPa 0.0 l/m 4.9 km/h (1 Bft) N-NW 1.00 h 624 W/m 4.4 C 19.3 C 8.2 km/h (2 Bft)
08.05.2010 17:00 19.4 C 38 % 1007.2 hPa 0.0 l/m 2.0 km/h (1 Bft) N-NW 1.00 h 467 W/m 4.7 C 19.4 C 4.2 km/h (1 Bft)
08.05.2010 18:00 19.1 C 37 % 1007.1 hPa 0.0 l/m 2.2 km/h (1 Bft) N-NW 0.93 h 274 W/m 4.1 C 19.1 C 4.4 km/h (1 Bft)
08.05.2010 19:00 17.3 C 41 % 1007.0 hPa 0.0 l/m 1.1 km/h (0 Bft) W-NW 0.22 h 85 W/m 3.8 C 17.3 C 2.5 km/h (1 Bft)
08.05.2010 20:00 14.9 C 55 % 1007.3 hPa 0.0 l/m 1.9 km/h (1 Bft) O-SO 0.00 h 20 W/m 5.7 C 14.9 C 3.6 km/h (1 Bft)
08.05.2010 21:00 12.7 C 69 % 1007.8 hPa 0.0 l/m 0.4 km/h (0 Bft) O-SO 0.00 h 0 W/m 7.0 C 12.7 C 1.1 km/h (0 Bft)
08.05.2010 22:00 11.4 C 76 % 1008.2 hPa 0.0 l/m 0.4 km/h (0 Bft) O-SO 0.00 h 0 W/m 7.3 C 11.4 C 1.2 km/h (1 Bft)
08.05.2010 23:00 10.5 C 81 % 1008.5 hPa 0.0 l/m 0.3 km/h (0 Bft) O-SO 0.00 h 0 W/m 7.3 C 10.5 C 0.9 km/h (0 Bft)
09.05.2010 00:00 10.4 C 83 % 1009.0 hPa 0.0 l/m 1.3 km/h (1 Bft) O-SO 0.00 h 0 W/m 7.7 C 10.4 C 2.7 km/h (1 Bft)
09.05.2010 01:00 10.6 C 82 % 1009.1 hPa 0.0 l/m 1.8 km/h (1 Bft) S-SW 0.00 h 0 W/m 7.7 C 10.6 C 3.8 km/h (1 Bft)
09.05.2010 02:00 10.7 C 85 % 1009.3 hPa 1.0 l/m 3.3 km/h (1 Bft) W 0.00 h 0 W/m 8.2 C 10.7 C 5.7 km/h (1 Bft)
09.05.2010 03:00 9.9 C 92 % 1009.0 hPa 0.4 l/m 0.5 km/h (0 Bft) NO 0.00 h 0 W/m 8.6 C 9.9 C 1.7 km/h (1 Bft)
09.05.2010 04:00 9.6 C 94 % 1008.9 hPa 0.6 l/m 1.2 km/h (1 Bft) O-SO 0.00 h 0 W/m 8.7 C 9.6 C 2.6 km/h (1 Bft)
09.05.2010 05:00 9.5 C 95 % 1008.7 hPa 0.0 l/m 0.6 km/h (0 Bft) O-SO 0.00 h 0 W/m 8.7 C 9.5 C 1.7 km/h (1 Bft)
09.05.2010 06:00 9.5 C 95 % 1008.7 hPa 0.0 l/m 0.1 km/h (0 Bft) O-SO 0.00 h 22 W/m 8.7 C 9.5 C 0.9 km/h (0 Bft)
09.05.2010 07:00 10.0 C 95 % 1008.9 hPa 0.0 l/m 0.0 km/h (0 Bft) N 0.03 h 81 W/m 9.3 C 10.0 C 0.2 km/h (0 Bft)
09.05.2010 08:00 10.9 C 94 % 1009.1 hPa 0.0 l/m 0.0 km/h (0 Bft) O-SO 0.28 h 190 W/m 9.9 C 10.9 C 0.4 km/h (0 Bft)
09.05.2010 09:00 12.8 C 87 % 1009.0 hPa 0.0 l/m 0.9 km/h (0 Bft) W 0.95 h 503 W/m 10.7 C 12.8 C 2.5 km/h (1 Bft)
09.05.2010 10:00 14.4 C 79 % 1008.4 hPa 0.0 l/m 1.0 km/h (0 Bft) NW 0.50 h 443 W/m 10.7 C 14.4 C 2.9 km/h (1 Bft)
09.05.2010 11:00 15.8 C 69 % 1008.1 hPa 0.0 l/m 1.5 km/h (1 Bft) W-SW 0.50 h 526 W/m 10.1 C 15.8 C 3.3 km/h (1 Bft)
09.05.2010 12:00 17.2 C 61 % 1007.5 hPa 0.0 l/m 2.9 km/h (1 Bft) NW 0.77 h 767 W/m 9.5 C 17.2 C 5.4 km/h (1 Bft)
09.05.2010 13:00 18.3 C 56 % 1006.6 hPa 0.0 l/m 3.6 km/h (1 Bft) N-NW 0.78 h 695 W/m 9.5 C 18.3 C 6.1 km/h (2 Bft)
09.05.2010 14:00 16.4 C 64 % 1006.4 hPa 0.6 l/m 5.7 km/h (1 Bft) N-NW 0.00 h 188 W/m 9.5 C 16.4 C 9.1 km/h (2 Bft)
09.05.2010 15:00 15.6 C 79 % 1006.2 hPa 0.0 l/m 1.5 km/h (1 Bft) N-NW 0.27 h 363 W/m 12.0 C 15.6 C 3.3 km/h (1 Bft)
09.05.2010 16:00 14.6 C 76 % 1006.3 hPa 0.0 l/m 7.2 km/h (2 Bft) W 0.00 h 165 W/m 10.4 C 14.6 C 12.1 km/h (2 Bft)
09.05.2010 17:00 13.6 C 81 % 1006.7 hPa 0.0 l/m 1.0 km/h (0 Bft) S-SO 0.00 h 109 W/m 10.4 C 13.6 C 2.3 km/h (1 Bft)
09.05.2010 18:00 13.4 C 83 % 1006.4 hPa 0.0 l/m 0.2 km/h (0 Bft) S-SO 0.00 h 70 W/m 10.6 C 13.4 C 0.9 km/h (0 Bft)
09.05.2010 19:00 12.7 C 90 % 1006.2 hPa 0.2 l/m 0.9 km/h (0 Bft) W-SW 0.00 h 27 W/m 11.1 C 12.7 C 2.6 km/h (1 Bft)
09.05.2010 20:00 12.0 C 92 % 1006.3 hPa 0.4 l/m 0.9 km/h (0 Bft) W 0.00 h 8 W/m 10.7 C 12.0 C 2.3 km/h (1 Bft)
09.05.2010 21:00 11.5 C 92 % 1006.5 hPa 1.0 l/m 0.0 km/h (0 Bft) N 0.00 h 0 W/m 10.2 C 11.5 C 0.2 km/h (0 Bft)
09.05.2010 22:00 11.1 C 95 % 1006.5 hPa 2.0 l/m 0.0 km/h (0 Bft) SO 0.00 h 0 W/m 10.3 C 11.1 C 0.1 km/h (0 Bft)
09.05.2010 23:00 10.7 C 96 % 1006.4 hPa 1.8 l/m 0.2 km/h (0 Bft) SO 0.00 h 0 W/m 10.1 C 10.7 C 0.8 km/h (0 Bft)
Min-Datum _ 07.05.10 08.05.10 06.05.10 - 03.05.10 - - - 08.05.10 07.05.10 03.05.10
_ Min-Zeit 01:35 16:00 06:00 - 00:18 - - - 17:18 00:43 00:36
Minimum _ 5.6 C 32 % 1000.5 hPa - 0.0 km/h (0 Bft) - - - 2.1 C 2.6 C 0.0 km/h (0 Bft)
Max-Datum _ 08.05.10 03.05.10 03.05.10 09.05.10 06.05.10 - 03.05.10 08.05.10 09.05.10 08.05.10 06.05.10
_ Max-Zeit 16:53 08:34 23:45 22:05 17:38 - 06:18 13:48 15:22 16:52 17:38
Maximum _ 20.2 C 98 % 1012.8 hPa 2.0 l/m 26.1 km/h
W (4 Bft)
- 0.02 h 1155 W/m 13.5 C 20.2 C 34.8 km/h
W (5 Bft)
Durchschnitt _ 10.3 C 83 % 1007.3 hPa #16.6 l/m 3.4 km/h (1 Bft) W #20:08 h 124 W/m 7.3 C 10.1 C 6.2 km/h (2 Bft)
© Kaiko 2010